Time,TemperatureF,DewpointF,PressureIn,WindDirection,WindDirectionDegrees,WindSpeedMPH,WindSpeedGustMPH,Humidity,HourlyPrecipIn,Conditions,Clouds,dailyrainin,SoftwareType,DateUTC
2013-01-12 00:00:00,67.0,64.6,30.04,SE,132,0.0,0.0,92,0.00,,---,0.00,VWS V13.01,2013-01-12 05:00:00,
2013-01-12 00:02:00,67.0,64.6,30.04,SE,132,0.0,0.0,92,0.00,,---,0.00,VWS V13.01,2013-01-12 05:02:00,
2013-01-12 00:04:00,67.0,64.6,30.04,SE,132,0.0,0.0,92,0.00,,---,0.00,VWS V13.01,2013-01-12 05:04:00,
2013-01-12 00:05:00,66.9,64.5,30.04,SE,132,0.0,0.0,92,0.00,,---,0.00,VWS V13.01,2013-01-12 05:05:00,
2013-01-12 00:10:00,66.8,64.4,30.04,SE,132,0.0,0.0,92,0.00,,---,0.00,VWS V13.01,2013-01-12 05:10:00,
2013-01-12 00:15:00,66.7,64.3,30.04,SE,132,0.0,0.0,92,0.00,,---,0.00,VWS V13.01,2013-01-12 05:15:00,
2013-01-12 00:20:00,66.5,64.1,30.04,SE,132,0.0,0.0,92,0.00,,---,0.00,VWS V13.01,2013-01-12 05:20:00,
2013-01-12 00:25:00,66.4,64.0,30.04,SE,132,0.0,0.0,92,0.00,,---,0.00,VWS V13.01,2013-01-12 05:25:00,
2013-01-12 00:30:00,66.2,63.8,30.03,SE,132,0.0,0.0,92,0.00,,---,0.00,VWS V13.01,2013-01-12 05:30:00,
2013-01-12 00:35:00,66.1,64.0,30.03,SE,132,0.0,0.0,93,0.00,,---,0.00,VWS V13.01,2013-01-12 05:35:00,
2013-01-12 00:40:00,66.0,63.9,30.03,SE,132,0.0,0.0,93,0.00,,---,0.00,VWS V13.01,2013-01-12 05:40:00,
2013-01-12 00:45:00,65.8,63.7,30.03,SE,132,0.0,0.0,93,0.00,,---,0.00,VWS V13.01,2013-01-12 05:45:00,
2013-01-12 00:50:00,65.6,63.5,30.03,SE,132,0.0,0.0,93,0.00,,---,0.00,VWS V13.01,2013-01-12 05:50:00,
2013-01-12 00:55:00,65.4,63.3,30.03,SE,132,0.0,0.0,93,0.00,,---,0.00,VWS V13.01,2013-01-12 05:55:00,
2013-01-12 01:00:00,65.4,63.3,30.03,SE,132,0.0,0.0,93,0.00,,---,0.00,VWS V13.01,2013-01-12 06:00:00,
2013-01-12 01:05:00,65.3,63.2,30.03,SE,132,0.0,0.0,93,0.00,,---,0.00,VWS V13.01,2013-01-12 06:05:00,
2013-01-12 01:10:00,65.2,63.1,30.03,SE,132,0.0,0.0,93,0.00,,---,0.00,VWS V13.01,2013-01-12 06:10:00,
2013-01-12 01:15:00,65.1,63.0,30.03,SE,132,0.0,0.0,93,0.00,,---,0.00,VWS V13.01,2013-01-12 06:15:00,
2013-01-12 01:20:00,65.1,63.0,30.02,SE,132,0.0,0.0,93,0.00,,---,0.00,VWS V13.01,2013-01-12 06:20:00,
2013-01-12 01:25:00,65.0,62.9,30.03,SE,132,0.0,0.0,93,0.00,,---,0.00,VWS V13.01,2013-01-12 06:25:00,
2013-01-12 01:30:00,64.9,62.8,30.02,SE,132,0.0,0.0,93,0.00,,---,0.00,VWS V13.01,2013-01-12 06:30:00,
2013-01-12 01:36:00,64.8,63.0,30.02,SE,132,0.0,0.0,94,0.00,,---,0.00,VWS V13.01,2013-01-12 06:36:00,
2013-01-12 01:41:00,64.8,63.0,30.02,SE,132,0.0,0.0,94,0.00,,---,0.00,VWS V13.01,2013-01-12 06:41:00,
2013-01-12 01:46:00,64.7,62.9,30.02,SE,132,0.0,0.0,94,0.00,,---,0.00,VWS V13.01,2013-01-12 06:46:00,
2013-01-12 01:51:00,64.6,62.8,30.02,SE,132,0.0,0.0,94,0.00,,---,0.00,VWS V13.01,2013-01-12 06:51:00,
2013-01-12 01:56:00,64.6,62.8,30.02,SE,132,0.0,0.0,94,0.00,,---,0.00,VWS V13.01,2013-01-12 06:56:00,
2013-01-12 02:01:00,64.6,62.8,30.02,SE,132,0.0,0.0,94,0.00,,---,0.00,VWS V13.01,2013-01-12 07:01:00,
2013-01-12 02:06:00,64.5,62.7,30.02,SE,132,0.0,0.0,94,0.00,,---,0.00,VWS V13.01,2013-01-12 07:06:00,
2013-01-12 02:11:00,64.5,62.7,30.02,SE,132,0.0,0.0,94,0.00,,---,0.00,VWS V13.01,2013-01-12 07:11:00,
2013-01-12 02:16:00,64.4,62.6,30.02,SE,132,0.0,0.0,94,0.00,,---,0.00,VWS V13.01,2013-01-12 07:16:00,
2013-01-12 02:21:00,64.3,62.8,30.02,SE,132,0.0,0.0,95,0.00,,---,0.00,VWS V13.01,2013-01-12 07:21:00,
2013-01-12 02:26:00,64.3,62.8,30.02,SE,132,0.0,0.0,95,0.00,,---,0.00,VWS V13.01,2013-01-12 07:26:00,
2013-01-12 02:31:00,64.3,62.8,30.02,SE,132,0.0,0.0,95,0.00,,---,0.00,VWS V13.01,2013-01-12 07:31:00,
2013-01-12 02:36:00,64.2,62.7,30.02,SE,132,0.0,0.0,95,0.00,,---,0.00,VWS V13.01,2013-01-12 07:36:00,
2013-01-12 02:41:00,64.1,62.6,30.02,SE,132,0.0,0.0,95,0.00,,---,0.00,VWS V13.01,2013-01-12 07:41:00,
2013-01-12 02:46:00,64.0,62.5,30.02,SE,132,0.0,0.0,95,0.00,,---,0.00,VWS V13.01,2013-01-12 07:46:00,
2013-01-12 02:51:00,63.9,62.4,30.02,SE,132,0.0,0.0,95,0.00,,---,0.00,VWS V13.01,2013-01-12 07:51:00,
2013-01-12 02:56:00,63.9,62.4,30.01,SE,132,0.0,0.0,95,0.00,,---,0.00,VWS V13.01,2013-01-12 07:56:00,
2013-01-12 03:01:00,63.9,62.4,30.01,SE,132,0.0,0.0,95,0.00,,---,0.00,VWS V13.01,2013-01-12 08:01:00,
2013-01-12 03:06:00,64.0,62.5,30.01,SE,132,0.0,0.0,95,0.00,,---,0.00,VWS V13.01,2013-01-12 08:06:00,
2013-01-12 03:11:00,64.0,62.5,30.01,SE,132,0.0,0.0,95,0.00,,---,0.00,VWS V13.01,2013-01-12 08:11:00,
2013-01-12 03:16:00,63.9,62.4,30.01,SE,132,0.0,0.0,95,0.00,,---,0.00,VWS V13.01,2013-01-12 08:16:00,
2013-01-12 03:21:00,63.9,62.4,30.01,SE,132,0.0,0.0,95,0.00,,---,0.00,VWS V13.01,2013-01-12 08:21:00,
2013-01-12 03:26:00,63.9,62.4,30.01,SE,132,0.0,0.0,95,0.00,,---,0.00,VWS V13.01,2013-01-12 08:26:00,
2013-01-12 03:31:00,63.9,62.4,30.01,SE,132,0.0,0.0,95,0.00,,---,0.00,VWS V13.01,2013-01-12 08:31:00,
2013-01-12 03:36:00,63.8,62.3,30.01,SE,132,0.0,0.0,95,0.00,,---,0.00,VWS V13.01,2013-01-12 08:36:00,
2013-01-12 03:41:00,63.8,62.3,30.01,SE,132,0.0,0.0,95,0.00,,---,0.00,VWS V13.01,2013-01-12 08:41:00,
2013-01-12 03:46:00,63.7,62.2,30.01,SE,132,0.0,0.0,95,0.00,,---,0.00,VWS V13.01,2013-01-12 08:46:00,
2013-01-12 03:51:00,63.7,62.2,30.01,SE,132,0.0,0.0,95,0.00,,---,0.00,VWS V13.01,2013-01-12 08:51:00,
2013-01-12 03:56:00,63.7,62.2,30.00,SE,132,0.0,0.0,95,0.00,,---,0.00,VWS V13.01,2013-01-12 08:56:00,
2013-01-12 04:01:00,63.6,62.2,30.00,SE,132,0.0,0.0,95,0.00,,---,0.00,VWS V13.01,2013-01-12 09:01:00,
2013-01-12 04:06:00,63.6,62.2,30.00,SE,132,0.0,0.0,95,0.00,,---,0.00,VWS V13.01,2013-01-12 09:06:00,
2013-01-12 04:11:00,63.7,62.2,30.00,SE,132,0.0,0.0,95,0.00,,---,0.00,VWS V13.01,2013-01-12 09:11:00,
2013-01-12 04:16:00,63.6,62.2,30.00,SE,132,0.0,0.0,95,0.00,,---,0.00,VWS V13.01,2013-01-12 09:16:00,
2013-01-12 04:21:00,63.5,62.0,30.00,SE,132,0.0,0.0,95,0.00,,---,0.00,VWS V13.01,2013-01-12 09:21:00,
2013-01-12 04:26:00,63.4,62.0,30.00,SE,132,0.0,0.0,95,0.00,,---,0.00,VWS V13.01,2013-01-12 09:26:00,
2013-01-12 04:31:00,63.2,61.8,30.00,SE,132,0.0,0.0,95,0.00,,---,0.00,VWS V13.01,2013-01-12 09:31:00,
2013-01-12 04:36:00,63.1,61.7,30.00,SE,132,0.0,0.0,95,0.00,,---,0.00,VWS V13.01,2013-01-12 09:36:00,
2013-01-12 04:41:00,63.0,61.5,30.00,SE,132,0.0,0.0,95,0.00,,---,0.00,VWS V13.01,2013-01-12 09:41:00,
2013-01-12 04:46:00,62.9,61.5,30.00,SE,132,0.0,0.0,95,0.00,,---,0.00,VWS V13.01,2013-01-12 09:46:00,
2013-01-12 04:51:00,63.0,61.5,30.00,SE,132,0.0,0.0,95,0.00,,---,0.00,VWS V13.01,2013-01-12 09:51:00,
2013-01-12 04:56:00,62.9,61.5,30.00,SE,132,0.0,0.0,95,0.00,,---,0.00,VWS V13.01,2013-01-12 09:56:00,
2013-01-12 05:01:00,62.9,61.5,30.00,SE,132,0.0,0.0,95,0.00,,---,0.00,VWS V13.01,2013-01-12 10:01:00,
2013-01-12 05:06:00,62.8,61.3,30.00,SE,132,0.0,0.0,95,0.00,,---,0.00,VWS V13.01,2013-01-12 10:06:00,
2013-01-12 05:11:00,62.8,61.3,30.00,SE,132,0.0,0.0,95,0.00,,---,0.00,VWS V13.01,2013-01-12 10:11:00,
2013-01-12 05:16:00,62.7,61.2,30.00,SE,132,0.0,0.0,95,0.00,,---,0.00,VWS V13.01,2013-01-12 10:16:00,
2013-01-12 05:21:00,62.7,61.2,30.00,SE,132,0.0,0.0,95,0.00,,---,0.00,VWS V13.01,2013-01-12 10:21:00,
2013-01-12 05:26:00,62.7,61.2,30.00,SE,132,0.0,0.0,95,0.00,,---,0.00,VWS V13.01,2013-01-12 10:26:00,
2013-01-12 05:31:00,62.7,61.2,30.00,SE,132,0.0,0.0,95,0.00,,---,0.00,VWS V13.01,2013-01-12 10:31:00,
2013-01-12 05:36:00,62.7,61.2,30.00,SE,132,0.0,0.0,95,0.00,,---,0.00,VWS V13.01,2013-01-12 10:36:00,
2013-01-12 05:42:00,62.7,61.2,30.00,SE,132,0.0,0.0,95,0.00,,---,0.00,VWS V13.01,2013-01-12 10:42:00,
2013-01-12 05:47:00,62.7,61.2,30.00,SE,132,0.0,0.0,95,0.00,,---,0.00,VWS V13.01,2013-01-12 10:47:00,
2013-01-12 05:52:00,62.7,61.2,30.00,SE,132,0.0,1.0,95,0.00,,---,0.00,VWS V13.01,2013-01-12 10:52:00,
2013-01-12 05:57:00,62.7,61.2,30.00,SE,132,0.0,0.0,95,0.00,,---,0.00,VWS V13.01,2013-01-12 10:57:00,
2013-01-12 06:02:00,62.7,61.2,30.01,SE,132,0.0,0.0,95,0.00,,---,0.00,VWS V13.01,2013-01-12 11:02:00,
2013-01-12 06:07:00,62.6,61.2,30.01,SE,132,0.0,0.0,95,0.00,,---,0.00,VWS V13.01,2013-01-12 11:07:00,
2013-01-12 06:12:00,62.6,61.5,30.01,SE,132,0.0,0.0,96,0.00,,---,0.00,VWS V13.01,2013-01-12 11:12:00,
2013-01-12 06:17:00,62.6,61.5,30.01,SE,132,0.0,0.0,96,0.00,,---,0.00,VWS V13.01,2013-01-12 11:17:00,
2013-01-12 06:22:00,62.5,61.3,30.01,SE,132,0.0,0.0,96,0.00,,---,0.00,VWS V13.01,2013-01-12 11:22:00,
2013-01-12 06:27:00,62.4,61.2,30.01,SE,132,0.0,0.0,96,0.00,,---,0.00,VWS V13.01,2013-01-12 11:27:00,
2013-01-12 06:32:00,62.3,61.2,30.01,SE,132,0.0,0.0,96,0.00,,---,0.00,VWS V13.01,2013-01-12 11:32:00,
2013-01-12 06:37:00,62.2,60.8,30.01,SE,132,0.0,0.0,95,0.00,,---,0.00,VWS V13.01,2013-01-12 11:37:00,
2013-01-12 06:42:00,62.1,60.7,30.02,SE,132,0.0,0.0,95,0.00,,---,0.00,VWS V13.01,2013-01-12 11:42:00,
2013-01-12 06:47:00,62.0,60.6,30.02,SE,132,0.0,0.0,95,0.00,,---,0.00,VWS V13.01,2013-01-12 11:47:00,
2013-01-12 06:52:00,62.0,60.6,30.02,SE,132,0.0,0.0,95,0.00,,---,0.00,VWS V13.01,2013-01-12 11:52:00,
2013-01-12 06:57:00,61.9,60.8,30.02,SE,132,0.0,0.0,96,0.00,,---,0.00,VWS V13.01,2013-01-12 11:57:00,
2013-01-12 07:02:00,61.8,60.7,30.02,SE,132,0.0,0.0,96,0.00,,---,0.00,VWS V13.01,2013-01-12 12:02:00,
2013-01-12 07:07:00,61.8,60.7,30.02,SE,132,0.0,0.0,96,0.00,,---,0.00,VWS V13.01,2013-01-12 12:07:00,
2013-01-12 07:12:00,61.7,60.5,30.02,SE,132,0.0,0.0,96,0.00,,---,0.00,VWS V13.01,2013-01-12 12:12:00,
2013-01-12 07:17:00,61.7,60.5,30.02,SE,132,0.0,0.0,96,0.00,,---,0.00,VWS V13.01,2013-01-12 12:17:00,
2013-01-12 07:22:00,61.7,60.5,30.03,SE,132,0.0,0.0,96,0.00,,---,0.00,VWS V13.01,2013-01-12 12:22:00,
2013-01-12 07:27:00,61.6,60.5,30.03,SE,132,0.0,0.0,96,0.00,,---,0.00,VWS V13.01,2013-01-12 12:27:00,
2013-01-12 07:32:00,61.7,60.5,30.03,SE,132,0.0,0.0,96,0.00,,---,0.00,VWS V13.01,2013-01-12 12:32:00,
2013-01-12 07:38:00,61.6,60.5,30.03,SE,132,0.0,0.0,96,0.00,,---,0.00,VWS V13.01,2013-01-12 12:38:00,
2013-01-12 07:43:00,61.6,60.5,30.03,SE,132,0.0,0.0,96,0.00,,---,0.00,VWS V13.01,2013-01-12 12:43:00,
2013-01-12 07:48:00,61.6,60.5,30.03,SE,132,0.0,0.0,96,0.00,,---,0.00,VWS V13.01,2013-01-12 12:48:00,
2013-01-12 07:53:00,61.5,60.3,30.03,SE,132,0.0,0.0,96,0.00,,---,0.00,VWS V13.01,2013-01-12 12:53:00,
2013-01-12 07:58:00,61.6,60.5,30.03,SE,132,0.0,0.0,96,0.00,,---,0.00,VWS V13.01,2013-01-12 12:58:00,
2013-01-12 08:03:00,61.7,60.5,30.03,SE,132,0.0,0.0,96,0.00,,---,0.00,VWS V13.01,2013-01-12 13:03:00,
2013-01-12 08:08:00,61.9,60.8,30.03,SE,132,0.0,0.0,96,0.00,,---,0.00,VWS V13.01,2013-01-12 13:08:00,
2013-01-12 08:13:00,62.2,61.0,30.03,SE,132,0.0,0.0,96,0.00,,---,0.00,VWS V13.01,2013-01-12 13:13:00,
2013-01-12 08:18:00,62.4,61.2,30.03,SE,132,0.0,0.0,96,0.00,,---,0.00,VWS V13.01,2013-01-12 13:18:00,
2013-01-12 08:23:00,62.7,61.5,30.04,SE,132,0.0,0.0,96,0.00,,---,0.00,VWS V13.01,2013-01-12 13:23:00,
2013-01-12 08:28:00,63.1,61.9,30.04,SE,132,0.0,0.0,96,0.00,,---,0.00,VWS V13.01,2013-01-12 13:28:00,
2013-01-12 08:33:00,63.5,62.3,30.04,SE,132,0.0,0.0,96,0.00,,---,0.00,VWS V13.01,2013-01-12 13:33:00,
2013-01-12 08:38:00,63.9,62.7,30.04,SE,132,0.0,0.0,96,0.00,,---,0.00,VWS V13.01,2013-01-12 13:38:00,
2013-01-12 08:43:00,64.2,63.0,30.04,SE,132,0.0,0.0,96,0.00,,---,0.00,VWS V13.01,2013-01-12 13:43:00,
2013-01-12 08:48:00,64.5,63.3,30.04,SE,132,0.0,0.0,96,0.00,,---,0.00,VWS V13.01,2013-01-12 13:48:00,
2013-01-12 08:53:00,64.9,63.7,30.04,SE,132,0.0,1.0,96,0.01,,---,0.01,VWS V13.01,2013-01-12 13:53:00,
2013-01-12 08:58:00,65.4,64.2,30.04,SE,132,0.0,0.0,96,0.01,,---,0.01,VWS V13.01,2013-01-12 13:58:00,
2013-01-12 09:03:00,65.7,64.5,30.04,SE,136,0.0,1.0,96,0.01,,---,0.01,VWS V13.01,2013-01-12 14:03:00,
2013-01-12 09:08:00,66.0,64.8,30.04,SE,136,0.0,0.0,96,0.01,,---,0.01,VWS V13.01,2013-01-12 14:08:00,
2013-01-12 09:13:00,66.4,65.5,30.04,SE,134,0.0,1.0,97,0.01,,---,0.01,VWS V13.01,2013-01-12 14:13:00,
2013-01-12 09:19:00,66.8,65.6,30.05,SE,133,0.0,2.0,96,0.01,,---,0.01,VWS V13.01,2013-01-12 14:19:00,
2013-01-12 09:24:00,67.1,65.9,30.05,SE,134,0.0,2.0,96,0.01,,---,0.01,VWS V13.01,2013-01-12 14:24:00,
2013-01-12 09:29:00,67.5,66.3,30.05,SE,134,0.0,0.0,96,0.01,,---,0.01,VWS V13.01,2013-01-12 14:29:00,
2013-01-12 09:34:00,67.9,67.0,30.04,SE,134,0.0,1.0,97,0.01,,---,0.01,VWS V13.01,2013-01-12 14:34:00,
2013-01-12 09:39:00,68.3,67.1,30.05,SE,142,0.0,1.0,96,0.01,,---,0.01,VWS V13.01,2013-01-12 14:39:00,
2013-01-12 09:44:00,68.8,67.6,30.04,SSE,150,0.0,5.0,96,0.01,,---,0.01,VWS V13.01,2013-01-12 14:44:00,
2013-01-12 09:49:00,69.5,68.3,30.05,SSE,148,0.0,0.0,96,0.01,,---,0.01,VWS V13.01,2013-01-12 14:49:00,
2013-01-12 09:54:00,69.9,68.7,30.04,ESE,109,0.0,5.0,96,0.01,,---,0.01,VWS V13.01,2013-01-12 14:54:00,
2013-01-12 09:59:00,70.4,69.2,30.04,SE,145,5.0,5.0,96,0.00,,---,0.01,VWS V13.01,2013-01-12 14:59:00,
2013-01-12 10:04:00,71.1,69.6,30.04,SE,138,0.0,5.0,95,0.00,,---,0.01,VWS V13.01,2013-01-12 15:04:00,
2013-01-12 10:09:00,71.5,69.4,30.04,SE,133,0.0,4.0,93,0.00,,---,0.01,VWS V13.01,2013-01-12 15:09:00,
2013-01-12 10:14:00,72.1,69.7,30.04,South,180,1.0,5.0,92,0.00,,---,0.01,VWS V13.01,2013-01-12 15:14:00,
2013-01-12 10:19:00,72.5,69.1,30.04,SE,146,1.0,6.0,89,0.00,,---,0.01,VWS V13.01,2013-01-12 15:19:00,
2013-01-12 10:24:00,72.9,69.5,30.04,ESE,121,0.0,6.0,89,0.00,,---,0.01,VWS V13.01,2013-01-12 15:24:00,
2013-01-12 10:29:00,73.3,69.2,30.04,SE,137,2.0,6.0,87,0.00,,---,0.01,VWS V13.01,2013-01-12 15:29:00,
2013-01-12 10:34:00,73.8,69.7,30.03,SE,146,0.0,6.0,87,0.00,,---,0.01,VWS V13.01,2013-01-12 15:34:00,
2013-01-12 10:39:00,74.4,69.6,30.03,SSE,167,0.0,4.0,85,0.00,,---,0.01,VWS V13.01,2013-01-12 15:39:00,
2013-01-12 10:44:00,74.8,69.3,30.03,SSE,150,0.0,5.0,83,0.00,,---,0.01,VWS V13.01,2013-01-12 15:44:00,
2013-01-12 10:49:00,74.9,68.7,30.03,SE,134,0.0,7.0,81,0.00,,---,0.01,VWS V13.01,2013-01-12 15:49:00,
2013-01-12 10:54:00,75.6,69.4,30.03,South,171,4.0,7.0,81,0.00,,---,0.01,VWS V13.01,2013-01-12 15:54:00,
2013-01-12 10:59:00,75.7,68.0,30.03,ESE,123,0.0,6.0,77,0.00,,---,0.01,VWS V13.01,2013-01-12 15:59:00,
2013-01-12 11:04:00,75.8,68.1,30.02,East,86,0.0,6.0,77,0.00,,---,0.01,VWS V13.01,2013-01-12 16:04:00,
2013-01-12 11:09:00,76.2,68.1,30.02,SSE,160,7.0,7.0,76,0.00,,---,0.01,VWS V13.01,2013-01-12 16:09:00,
2013-01-12 11:14:00,76.4,67.1,30.02,SSE,161,0.0,7.0,73,0.00,,---,0.01,VWS V13.01,2013-01-12 16:14:00,
2013-01-12 11:19:00,76.6,66.9,30.02,SW,215,1.0,6.0,72,0.00,,---,0.01,VWS V13.01,2013-01-12 16:19:00,
2013-01-12 11:24:00,77.0,66.9,30.01,ESE,106,1.0,6.0,71,0.00,,---,0.01,VWS V13.01,2013-01-12 16:24:00,
2013-01-12 11:29:00,77.2,66.7,30.01,ESE,118,0.0,3.0,70,0.00,,---,0.01,VWS V13.01,2013-01-12 16:29:00,
2013-01-12 11:34:00,77.6,66.6,30.01,SE,137,4.0,4.0,69,0.00,,---,0.01,VWS V13.01,2013-01-12 16:34:00,
2013-01-12 11:39:00,77.6,66.2,30.01,ESE,123,6.0,9.0,68,0.00,,---,0.01,VWS V13.01,2013-01-12 16:39:00,
2013-01-12 11:44:00,77.6,66.2,30.00,ESE,121,2.0,9.0,68,0.00,,---,0.01,VWS V13.01,2013-01-12 16:44:00,
2013-01-12 11:49:00,78.0,67.4,30.00,South,173,4.0,11.0,70,0.00,,---,0.01,VWS V13.01,2013-01-12 16:49:00,
2013-01-12 11:54:00,78.1,65.8,30.00,East,92,1.0,11.0,66,0.00,,---,0.01,VWS V13.01,2013-01-12 16:54:00,
2013-01-12 11:59:00,78.3,66.0,30.00,SE,138,0.0,6.0,66,0.00,,---,0.01,VWS V13.01,2013-01-12 16:59:00,
2013-01-12 12:04:00,78.7,66.4,29.99,ESE,121,0.0,6.0,66,0.00,,---,0.01,VWS V13.01,2013-01-12 17:04:00,
2013-01-12 12:09:00,78.9,66.6,29.99,ESE,103,1.0,7.0,66,0.00,,---,0.01,VWS V13.01,2013-01-12 17:09:00,
2013-01-12 12:14:00,79.0,65.8,29.99,ESE,105,0.0,9.0,64,0.00,,---,0.01,VWS V13.01,2013-01-12 17:14:00,
2013-01-12 12:19:00,79.2,66.4,29.98,ESE,117,0.0,5.0,65,0.00,,---,0.01,VWS V13.01,2013-01-12 17:19:00,
2013-01-12 12:24:00,79.5,66.3,29.98,SSE,157,0.0,5.0,64,0.00,,---,0.01,VWS V13.01,2013-01-12 17:24:00,
2013-01-12 12:29:00,79.5,67.6,29.98,ESE,123,0.0,10.0,67,0.00,,---,0.01,VWS V13.01,2013-01-12 17:29:00,
2013-01-12 12:34:00,79.7,67.3,29.98,South,180,2.0,10.0,66,0.00,,---,0.01,VWS V13.01,2013-01-12 17:34:00,
2013-01-12 12:39:00,79.8,67.0,29.97,SSW,194,0.0,5.0,65,0.00,,---,0.01,VWS V13.01,2013-01-12 17:39:00,
2013-01-12 12:44:00,80.3,67.9,29.97,ESE,105,0.0,5.0,66,0.00,,---,0.01,VWS V13.01,2013-01-12 17:44:00,
2013-01-12 12:49:00,80.6,67.3,29.97,ESE,110,1.0,5.0,64,0.00,,---,0.01,VWS V13.01,2013-01-12 17:49:00,
2013-01-12 12:54:00,80.7,67.8,29.97,South,183,1.0,7.0,65,0.00,,---,0.01,VWS V13.01,2013-01-12 17:54:00,
2013-01-12 12:59:00,80.9,67.1,29.97,ENE,67,2.0,5.0,63,0.00,,---,0.01,VWS V13.01,2013-01-12 17:59:00,
2013-01-12 13:04:00,81.1,66.9,29.97,ESE,117,3.0,6.0,62,0.00,,---,0.01,VWS V13.01,2013-01-12 18:04:00,
2013-01-12 13:09:00,81.0,66.3,29.96,South,182,5.0,7.0,61,0.00,,---,0.01,VWS V13.01,2013-01-12 18:09:00,
2013-01-12 13:14:00,80.5,65.8,29.96,South,188,0.0,9.0,61,0.00,,---,0.01,VWS V13.01,2013-01-12 18:14:00,
2013-01-12 13:19:00,80.6,66.4,29.96,SSE,164,0.0,5.0,62,0.00,,---,0.01,VWS V13.01,2013-01-12 18:19:00,
2013-01-12 13:24:00,80.9,67.1,29.96,East,101,0.0,5.0,63,0.00,,---,0.01,VWS V13.01,2013-01-12 18:24:00,
2013-01-12 13:29:00,81.2,65.5,29.96,South,186,3.0,4.0,59,0.00,,---,0.01,VWS V13.01,2013-01-12 18:29:00,
2013-01-12 13:34:00,81.2,66.5,29.96,South,172,4.0,7.0,61,0.00,,---,0.01,VWS V13.01,2013-01-12 18:34:00,
2013-01-12 13:39:00,81.1,66.4,29.95,South,187,0.0,5.0,61,0.00,,---,0.01,VWS V13.01,2013-01-12 18:39:00,
2013-01-12 13:44:00,81.5,66.8,29.95,SSE,154,0.0,5.0,61,0.00,,---,0.01,VWS V13.01,2013-01-12 18:44:00,
2013-01-12 13:49:00,81.6,66.4,29.95,South,179,0.0,6.0,60,0.00,,---,0.01,VWS V13.01,2013-01-12 18:49:00,
2013-01-12 13:54:00,81.7,66.5,29.95,ESE,120,0.0,7.0,60,0.00,,---,0.01,VWS V13.01,2013-01-12 18:54:00,
2013-01-12 13:59:00,81.7,66.0,29.95,South,187,0.0,8.0,59,0.00,,---,0.01,VWS V13.01,2013-01-12 18:59:00,
2013-01-12 14:04:00,81.9,66.7,29.95,SSW,201,0.0,8.0,60,0.00,,---,0.01,VWS V13.01,2013-01-12 19:04:00,
2013-01-12 14:09:00,82.3,65.6,29.95,South,169,0.0,9.0,57,0.00,,---,0.01,VWS V13.01,2013-01-12 19:09:00,
2013-01-12 14:14:00,82.1,66.4,29.95,ESE,120,0.0,9.0,59,0.00,,---,0.01,VWS V13.01,2013-01-12 19:14:00,
2013-01-12 14:19:00,82.1,65.4,29.95,SSW,192,0.0,6.0,57,0.00,,---,0.01,VWS V13.01,2013-01-12 19:19:00,
2013-01-12 14:24:00,81.9,66.7,29.95,SE,126,0.0,6.0,60,0.00,,---,0.01,VWS V13.01,2013-01-12 19:24:00,
2013-01-12 14:29:00,82.1,65.4,29.95,SSW,196,0.0,5.0,57,0.00,,---,0.01,VWS V13.01,2013-01-12 19:29:00,
2013-01-12 14:34:00,82.1,64.9,29.95,South,188,2.0,7.0,56,0.00,,---,0.01,VWS V13.01,2013-01-12 19:34:00,
2013-01-12 14:39:00,82.2,65.0,29.94,South,190,0.0,4.0,56,0.00,,---,0.01,VWS V13.01,2013-01-12 19:39:00,
2013-01-12 14:44:00,82.3,65.6,29.94,SW,232,0.0,4.0,57,0.00,,---,0.01,VWS V13.01,2013-01-12 19:44:00,
2013-01-12 14:49:00,82.4,65.1,29.94,South,184,0.0,2.0,56,0.00,,---,0.01,VWS V13.01,2013-01-12 19:49:00,
2013-01-12 14:54:00,82.1,65.4,29.94,South,173,1.0,6.0,57,0.00,,---,0.01,VWS V13.01,2013-01-12 19:54:00,
2013-01-12 14:59:00,81.8,65.6,29.94,SSE,149,0.0,5.0,58,0.00,,---,0.01,VWS V13.01,2013-01-12 19:59:00,
2013-01-12 15:04:00,81.6,64.9,29.94,SSE,153,0.0,7.0,57,0.00,,---,0.01,VWS V13.01,2013-01-12 20:04:00,
2013-01-12 15:09:00,81.4,64.2,29.94,South,183,1.0,6.0,56,0.00,,---,0.01,VWS V13.01,2013-01-12 20:09:00,
2013-01-12 15:14:00,81.5,64.8,29.94,South,186,0.0,6.0,57,0.00,,---,0.01,VWS V13.01,2013-01-12 20:14:00,
2013-01-12 15:19:00,81.8,65.6,29.94,South,178,0.0,4.0,58,0.00,,---,0.01,VWS V13.01,2013-01-12 20:19:00,
2013-01-12 15:24:00,81.9,65.2,29.94,SSW,198,0.0,5.0,57,0.00,,---,0.01,VWS V13.01,2013-01-12 20:24:00,
2013-01-12 15:29:00,81.7,65.5,29.94,SSE,164,0.0,7.0,58,0.00,,---,0.01,VWS V13.01,2013-01-12 20:29:00,
2013-01-12 15:34:00,81.7,65.5,29.94,South,184,0.0,7.0,58,0.00,,---,0.01,VWS V13.01,2013-01-12 20:34:00,
2013-01-12 15:39:00,81.8,66.6,29.94,SSW,198,0.0,3.0,60,0.00,,---,0.01,VWS V13.01,2013-01-12 20:39:00,
2013-01-12 15:44:00,81.6,65.4,29.94,South,191,0.0,6.0,58,0.00,,---,0.01,VWS V13.01,2013-01-12 20:44:00,
2013-01-12 15:49:00,81.4,65.7,29.95,SSE,160,0.0,4.0,59,0.00,,---,0.01,VWS V13.01,2013-01-12 20:49:00,
2013-01-12 15:54:00,81.6,66.4,29.95,South,171,1.0,4.0,60,0.00,,---,0.01,VWS V13.01,2013-01-12 20:54:00,
2013-01-12 16:00:00,81.4,65.2,29.95,South,180,0.0,4.0,58,0.00,,---,0.01,VWS V13.01,2013-01-12 21:00:00,
2013-01-12 16:05:00,81.1,65.4,29.95,SSW,194,0.0,4.0,59,0.00,,---,0.01,VWS V13.01,2013-01-12 21:05:00,
2013-01-12 16:10:00,81.0,65.3,29.95,SSW,200,0.0,1.0,59,0.00,,---,0.01,VWS V13.01,2013-01-12 21:10:00,
2013-01-12 16:15:00,80.9,65.7,29.95,SSW,202,0.0,1.0,60,0.00,,---,0.01,VWS V13.01,2013-01-12 21:15:00,
2013-01-12 16:20:00,80.6,65.4,29.95,SSW,202,1.0,1.0,60,0.00,,---,0.01,VWS V13.01,2013-01-12 21:20:00,
2013-01-12 16:25:00,80.5,64.9,29.95,SSW,201,0.0,1.0,59,0.00,,---,0.01,VWS V13.01,2013-01-12 21:25:00,
2013-01-12 16:30:00,80.2,65.1,29.95,SSW,200,0.0,2.0,60,0.00,,---,0.01,VWS V13.01,2013-01-12 21:30:00,
2013-01-12 16:35:00,80.0,65.4,29.96,SSW,196,1.0,3.0,61,0.00,,---,0.01,VWS V13.01,2013-01-12 21:35:00,
2013-01-12 16:40:00,79.4,64.8,29.96,SSW,194,0.0,1.0,61,0.00,,---,0.01,VWS V13.01,2013-01-12 21:40:00,
2013-01-12 16:45:00,78.9,64.8,29.96,SSW,194,0.0,1.0,62,0.00,,---,0.01,VWS V13.01,2013-01-12 21:45:00,
2013-01-12 16:50:00,78.5,64.9,29.96,SSW,194,0.0,1.0,63,0.00,,---,0.01,VWS V13.01,2013-01-12 21:50:00,
2013-01-12 16:55:00,78.2,65.0,29.96,SSW,194,0.0,1.0,64,0.00,,---,0.01,VWS V13.01,2013-01-12 21:55:00,
2013-01-12 17:00:00,77.8,65.1,29.96,SSW,194,0.0,0.0,65,0.00,,---,0.01,VWS V13.01,2013-01-12 22:00:00,
2013-01-12 17:05:00,77.3,65.9,29.96,SSW,194,0.0,0.0,68,0.00,,---,0.01,VWS V13.01,2013-01-12 22:05:00,
2013-01-12 17:10:00,76.9,66.8,29.96,SSW,194,0.0,0.0,71,0.00,,---,0.01,VWS V13.01,2013-01-12 22:10:00,
2013-01-12 17:15:00,76.4,65.9,29.96,SSW,194,0.0,0.0,70,0.00,,---,0.01,VWS V13.01,2013-01-12 22:15:00,
2013-01-12 17:20:00,75.9,65.8,29.96,SSW,194,0.0,0.0,71,0.00,,---,0.01,VWS V13.01,2013-01-12 22:20:00,
2013-01-12 17:25:00,75.6,66.3,29.96,SSW,194,0.0,0.0,73,0.00,,---,0.01,VWS V13.01,2013-01-12 22:25:00,
2013-01-12 17:30:00,75.4,66.2,29.96,SSW,194,0.0,0.0,73,0.00,,---,0.01,VWS V13.01,2013-01-12 22:30:00,
2013-01-12 17:35:00,75.2,66.3,29.96,SSW,194,0.0,0.0,74,0.00,,---,0.01,VWS V13.01,2013-01-12 22:35:00,
2013-01-12 17:41:00,74.9,65.7,29.96,SSW,194,0.0,0.0,73,0.00,,---,0.01,VWS V13.01,2013-01-12 22:41:00,
2013-01-12 17:46:00,74.8,66.0,29.96,SSW,194,0.0,0.0,74,0.00,,---,0.01,VWS V13.01,2013-01-12 22:46:00,
2013-01-12 17:51:00,74.5,65.7,29.96,SSW,194,0.0,0.0,74,0.00,,---,0.01,VWS V13.01,2013-01-12 22:51:00,
2013-01-12 17:56:00,74.1,65.7,29.96,SSW,194,0.0,0.0,75,0.00,,---,0.01,VWS V13.01,2013-01-12 22:56:00,
2013-01-12 18:01:00,73.7,68.9,29.96,SSW,194,0.0,0.0,85,0.00,,---,0.01,VWS V13.01,2013-01-12 23:01:00,
2013-01-12 18:06:00,72.9,68.1,29.96,SSW,194,0.0,0.0,85,0.00,,---,0.01,VWS V13.01,2013-01-12 23:06:00,
2013-01-12 18:11:00,72.2,66.8,29.96,SSW,194,0.0,0.0,83,0.00,,---,0.01,VWS V13.01,2013-01-12 23:11:00,
2013-01-12 18:16:00,71.6,67.2,29.96,SSW,194,0.0,0.0,86,0.00,,---,0.01,VWS V13.01,2013-01-12 23:16:00,
2013-01-12 18:21:00,71.1,66.7,29.96,SSW,194,0.0,0.0,86,0.00,,---,0.01,VWS V13.01,2013-01-12 23:21:00,
2013-01-12 18:26:00,70.7,66.3,29.96,SSW,194,0.0,0.0,86,0.00,,---,0.01,VWS V13.01,2013-01-12 23:26:00,
2013-01-12 18:31:00,70.6,66.2,29.97,SSW,194,0.0,0.0,86,0.00,,---,0.01,VWS V13.01,2013-01-12 23:31:00,
2013-01-12 18:36:00,70.7,66.7,29.97,SSW,194,0.0,0.0,87,0.00,,---,0.01,VWS V13.01,2013-01-12 23:36:00,
2013-01-12 18:41:00,70.8,66.4,29.97,SSW,194,0.0,0.0,86,0.00,,---,0.01,VWS V13.01,2013-01-12 23:41:00,
2013-01-12 18:46:00,70.9,65.8,29.97,SSW,194,0.0,0.0,84,0.00,,---,0.01,VWS V13.01,2013-01-12 23:46:00,
2013-01-12 18:51:00,71.0,64.9,29.97,SSW,194,0.0,0.0,81,0.00,,---,0.01,VWS V13.01,2013-01-12 23:51:00,
2013-01-12 18:57:00,71.2,65.1,29.97,SSW,194,0.0,0.0,81,0.00,,---,0.01,VWS V13.01,2013-01-12 23:57:00,
2013-01-12 19:02:00,71.3,65.2,29.97,SSW,194,0.0,0.0,81,0.00,,---,0.01,VWS V13.01,2013-01-13 00:02:00,
2013-01-12 19:07:00,71.3,64.8,29.97,SSW,194,0.0,0.0,80,0.00,,---,0.01,VWS V13.01,2013-01-13 00:07:00,
2013-01-12 19:12:00,71.3,64.8,29.97,SSW,194,0.0,0.0,80,0.00,,---,0.01,VWS V13.01,2013-01-13 00:12:00,
2013-01-12 19:17:00,71.4,64.9,29.97,SSW,194,0.0,0.0,80,0.00,,---,0.01,VWS V13.01,2013-01-13 00:17:00,
2013-01-12 19:22:00,71.5,64.7,29.97,SSW,194,0.0,0.0,79,0.00,,---,0.01,VWS V13.01,2013-01-13 00:22:00,
2013-01-12 19:27:00,71.6,64.8,29.97,SSW,194,0.0,0.0,79,0.00,,---,0.01,VWS V13.01,2013-01-13 00:27:00,
2013-01-12 19:32:00,71.7,64.8,29.96,SSW,194,0.0,1.0,79,0.00,,---,0.01,VWS V13.01,2013-01-13 00:32:00,
2013-01-12 19:37:00,71.8,64.6,29.97,SE,132,0.0,0.0,78,0.00,,---,0.01,VWS V13.01,2013-01-13 00:37:00,
2013-01-12 19:42:00,72.0,64.8,29.96,ESE,102,0.0,5.0,78,0.00,,---,0.01,VWS V13.01,2013-01-13 00:42:00,
2013-01-12 19:47:00,72.2,64.6,29.97,East,99,0.0,1.0,77,0.00,,---,0.01,VWS V13.01,2013-01-13 00:47:00,
2013-01-12 19:52:00,72.3,64.7,29.97,East,99,0.0,1.0,77,0.00,,---,0.01,VWS V13.01,2013-01-13 00:52:00,
2013-01-12 19:57:00,72.3,65.1,29.97,East,101,0.0,1.0,78,0.00,,---,0.01,VWS V13.01,2013-01-13 00:57:00,
2013-01-12 20:02:00,72.3,65.1,29.97,ESE,106,0.0,1.0,78,0.00,,---,0.01,VWS V13.01,2013-01-13 01:02:00,
2013-01-12 20:07:00,72.3,65.1,29.97,East,90,0.0,4.0,78,0.00,,---,0.01,VWS V13.01,2013-01-13 01:07:00,
2013-01-12 20:12:00,72.3,65.1,29.96,ESE,117,0.0,4.0,78,0.00,,---,0.01,VWS V13.01,2013-01-13 01:12:00,
2013-01-12 20:18:00,72.2,65.3,29.96,ESE,119,1.0,3.0,79,0.00,,---,0.01,VWS V13.01,2013-01-13 01:18:00,
2013-01-12 20:23:00,72.1,65.2,29.96,ESE,122,0.0,5.0,79,0.00,,---,0.01,VWS V13.01,2013-01-13 01:23:00,
2013-01-12 20:28:00,72.0,65.1,29.96,ESE,121,0.0,3.0,79,0.00,,---,0.01,VWS V13.01,2013-01-13 01:28:00,
2013-01-12 20:33:00,71.8,65.3,29.96,ESE,117,0.0,4.0,80,0.00,,---,0.01,VWS V13.01,2013-01-13 01:33:00,
2013-01-12 20:38:00,71.6,65.1,29.96,East,85,4.0,6.0,80,0.00,,---,0.01,VWS V13.01,2013-01-13 01:38:00,
2013-01-12 20:43:00,71.5,65.4,29.96,South,171,0.0,6.0,81,0.00,,---,0.01,VWS V13.01,2013-01-13 01:43:00,
2013-01-12 20:48:00,71.3,65.2,29.96,SSE,165,0.0,3.0,81,0.00,,---,0.01,VWS V13.01,2013-01-13 01:48:00,
2013-01-12 20:53:00,71.2,65.4,29.96,SE,129,0.0,9.0,82,0.00,,---,0.01,VWS V13.01,2013-01-13 01:53:00,
2013-01-12 20:58:00,71.0,65.2,29.96,SSE,147,1.0,2.0,82,0.00,,---,0.01,VWS V13.01,2013-01-13 01:58:00,
2013-01-12 21:03:00,70.8,65.4,29.96,SSE,148,0.0,7.0,83,0.00,,---,0.01,VWS V13.01,2013-01-13 02:03:00,
2013-01-12 21:08:00,70.7,65.3,29.96,ESE,114,0.0,4.0,83,0.00,,---,0.01,VWS V13.01,2013-01-13 02:08:00,
2013-01-12 21:13:00,70.6,65.5,29.96,SE,142,0.0,5.0,84,0.00,,---,0.01,VWS V13.01,2013-01-13 02:13:00,
2013-01-12 21:18:00,70.5,65.4,29.96,ESE,123,0.0,3.0,84,0.00,,---,0.01,VWS V13.01,2013-01-13 02:18:00,
2013-01-12 21:23:00,70.4,65.3,29.96,SE,125,0.0,3.0,84,0.00,,---,0.01,VWS V13.01,2013-01-13 02:23:00,
2013-01-12 21:28:00,70.2,65.5,29.96,South,173,0.0,0.0,85,0.00,,---,0.01,VWS V13.01,2013-01-13 02:28:00,
2013-01-12 21:34:00,70.1,65.4,29.96,SE,146,0.0,4.0,85,0.00,,---,0.01,VWS V13.01,2013-01-13 02:34:00,
2013-01-12 21:39:00,70.0,65.6,29.96,SSW,209,0.0,1.0,86,0.00,,---,0.01,VWS V13.01,2013-01-13 02:39:00,
2013-01-12 21:44:00,69.9,65.5,29.95,ESE,119,0.0,1.0,86,0.00,,---,0.01,VWS V13.01,2013-01-13 02:44:00,
2013-01-12 21:49:00,69.9,65.5,29.95,SE,134,0.0,5.0,86,0.00,,---,0.01,VWS V13.01,2013-01-13 02:49:00,
2013-01-12 21:54:00,69.8,65.8,29.95,ESE,121,0.0,5.0,87,0.00,,---,0.01,VWS V13.01,2013-01-13 02:54:00,
2013-01-12 21:59:00,69.7,65.7,29.95,SE,132,0.0,6.0,87,0.00,,---,0.01,VWS V13.01,2013-01-13 02:59:00,
2013-01-12 22:04:00,69.6,65.6,29.95,SSE,154,0.0,6.0,87,0.00,,---,0.01,VWS V13.01,2013-01-13 03:04:00,
2013-01-12 22:09:00,69.5,65.5,29.96,SE,133,0.0,1.0,87,0.00,,---,0.01,VWS V13.01,2013-01-13 03:09:00,
2013-01-12 22:14:00,69.4,65.7,29.96,SE,138,0.0,5.0,88,0.00,,---,0.01,VWS V13.01,2013-01-13 03:14:00,
2013-01-12 22:19:00,69.3,65.6,29.95,SE,133,0.0,3.0,88,0.00,,---,0.01,VWS V13.01,2013-01-13 03:19:00,
2013-01-12 22:24:00,69.1,65.4,29.95,South,184,0.0,7.0,88,0.00,,---,0.01,VWS V13.01,2013-01-13 03:24:00,
2013-01-12 22:29:00,69.1,65.4,29.96,SE,126,2.0,6.0,88,0.00,,---,0.01,VWS V13.01,2013-01-13 03:29:00,
2013-01-12 22:34:00,69.0,65.6,29.96,SE,126,0.0,6.0,89,0.00,,---,0.01,VWS V13.01,2013-01-13 03:34:00,
2013-01-12 22:39:00,68.9,65.5,29.95,SE,127,0.0,1.0,89,0.00,,---,0.01,VWS V13.01,2013-01-13 03:39:00,
2013-01-12 22:44:00,68.8,65.4,29.95,SSE,155,0.0,1.0,89,0.00,,---,0.01,VWS V13.01,2013-01-13 03:44:00,
2013-01-12 22:50:00,68.7,65.3,29.95,SSE,149,0.0,0.0,89,0.00,,---,0.01,VWS V13.01,2013-01-13 03:50:00,
2013-01-12 22:55:00,68.5,65.1,29.95,SE,140,0.0,1.0,89,0.00,,---,0.01,VWS V13.01,2013-01-13 03:55:00,
2013-01-12 23:00:00,68.5,65.5,29.96,SE,144,0.0,1.0,90,0.00,,---,0.01,VWS V13.01,2013-01-13 04:00:00,
2013-01-12 23:05:00,68.4,65.4,29.96,SSE,158,0.0,3.0,90,0.00,,---,0.01,VWS V13.01,2013-01-13 04:05:00,
2013-01-12 23:10:00,68.4,65.4,29.96,SSE,161,0.0,3.0,90,0.00,,---,0.01,VWS V13.01,2013-01-13 04:10:00,
2013-01-12 23:15:00,68.3,65.3,29.95,SSE,161,0.0,3.0,90,0.00,,---,0.01,VWS V13.01,2013-01-13 04:15:00,
2013-01-12 23:20:00,68.2,65.2,29.96,SSE,161,0.0,0.0,90,0.00,,---,0.01,VWS V13.01,2013-01-13 04:20:00,
2013-01-12 23:25:00,68.1,65.1,29.95,SSE,161,0.0,3.0,90,0.00,,---,0.01,VWS V13.01,2013-01-13 04:25:00,
2013-01-12 23:30:00,68.0,65.0,29.96,SSE,161,0.0,1.0,90,0.00,,---,0.01,VWS V13.01,2013-01-13 04:30:00,
2013-01-12 23:35:00,68.0,65.0,29.95,SSE,162,0.0,2.0,90,0.00,,---,0.01,VWS V13.01,2013-01-13 04:35:00,
2013-01-12 23:40:00,68.0,65.0,29.96,SSE,159,0.0,4.0,90,0.00,,---,0.01,VWS V13.01,2013-01-13 04:40:00,
2013-01-12 23:45:00,68.0,65.0,29.95,SSE,161,0.0,4.0,90,0.00,,---,0.01,VWS V13.01,2013-01-13 04:45:00,
2013-01-12 23:50:00,67.9,64.9,29.95,SSE,159,0.0,4.0,90,0.00,,---,0.01,VWS V13.01,2013-01-13 04:50:00,
2013-01-12 23:55:00,67.8,65.1,29.95,South,175,0.0,4.0,91,0.00,,---,0.01,VWS V13.01,2013-01-13 04:55:00,